Time;durP1;ratioP1;P1;durP2;ratioP2;P2;SDS_P1;SDS_P2;PMS_P1;PMS_P2;Temp;Humidity;BMP_temperature;BMP_pressure;BME280_temperature;BME280_humidity;BME280_pressure;Samples;Min_cycle;Max_cycle;Signal;HPM_P1;HPM_P2
2022/02/23 00:01:40;;;;;;;6.15;2.65;;;6.30;99.90;;;;;;5004766;28;20054;-60
2022/02/23 00:04:10;;;;;;;6.13;1.90;;;6.30;99.90;;;;;;5010976;28;20069;-60
2022/02/23 00:06:38;;;;;;;7.05;2.15;;;6.30;99.90;;;;;;5001815;28;20050;-59
2022/02/23 00:09:05;;;;;;;5.93;2.10;;;6.30;99.90;;;;;;5002939;28;20076;-61
2022/02/23 00:11:31;;;;;;;6.93;2.15;;;6.30;99.90;;;;;;5003991;28;20741;-61
2022/02/23 00:13:58;;;;;;;8.02;2.33;;;6.20;99.90;;;;;;4999362;28;20418;-60
2022/02/23 00:16:25;;;;;;;10.02;2.75;;;6.20;99.90;;;;;;5001316;28;20152;-60
2022/02/23 00:18:51;;;;;;;7.43;2.58;;;6.30;99.90;;;;;;5003162;28;20156;-60
2022/02/23 00:21:18;;;;;;;4.10;1.85;;;6.30;99.90;;;;;;5003766;28;20453;-60
2022/02/23 00:23:45;;;;;;;7.07;2.30;;;6.30;99.90;;;;;;5002833;28;20085;-60
2022/02/23 00:26:13;;;;;;;10.35;3.03;;;6.30;99.90;;;;;;5011657;28;20049;-60
2022/02/23 00:28:40;;;;;;;8.40;2.58;;;6.30;99.90;;;;;;5007105;28;20140;-60
2022/02/23 00:31:07;;;;;;;6.82;2.47;;;6.30;99.90;;;;;;5006994;28;20094;-65
2022/02/23 00:33:33;;;;;;;9.35;2.35;;;6.30;99.90;;;;;;4998361;28;20522;-60
2022/02/23 00:36:00;;;;;;;8.38;2.50;;;6.30;99.90;;;;;;5004301;28;20421;-60
2022/02/23 00:38:27;;;;;;;7.15;2.67;;;6.30;99.90;;;;;;5003318;28;20155;-61
2022/02/23 00:40:53;;;;;;;9.27;2.20;;;6.20;99.90;;;;;;5002801;28;20144;-60
2022/02/23 00:43:20;;;;;;;8.05;3.40;;;6.20;99.90;;;;;;5004066;28;20089;-60
2022/02/23 00:45:48;;;;;;;10.48;2.63;;;6.20;99.90;;;;;;5001905;28;20046;-60
2022/02/23 00:48:15;;;;;;;7.45;2.45;;;6.20;99.90;;;;;;5003660;28;20106;-60
2022/02/23 00:50:42;;;;;;;9.55;3.45;;;6.20;99.90;;;;;;5002765;28;20540;-60
2022/02/23 00:53:09;;;;;;;7.65;1.90;;;6.20;99.90;;;;;;5002300;28;20199;-58
2022/02/23 00:55:35;;;;;;;6.95;2.58;;;6.20;99.90;;;;;;5005602;28;20543;-59
2022/02/23 00:58:02;;;;;;;7.53;2.47;;;6.20;99.90;;;;;;5002511;28;20108;-59
2022/02/23 01:00:29;;;;;;;7.47;2.67;;;6.10;99.90;;;;;;5001666;28;20344;-58
2022/02/23 01:02:56;;;;;;;10.80;2.45;;;6.10;99.90;;;;;;5002419;28;20579;-58
2022/02/23 01:05:22;;;;;;;9.02;3.35;;;6.10;99.90;;;;;;5007588;28;20085;-59
2022/02/23 01:07:49;;;;;;;9.68;2.78;;;6.10;99.90;;;;;;5008486;28;20077;-59
2022/02/23 01:10:16;;;;;;;12.25;3.05;;;6.10;99.90;;;;;;5003503;28;20144;-58
2022/02/23 01:12:43;;;;;;;10.23;2.22;;;6.10;99.90;;;;;;5005354;28;20082;-62
2022/02/23 01:15:09;;;;;;;6.30;2.50;;;6.00;99.90;;;;;;5004976;28;20084;-59
2022/02/23 01:17:38;;;;;;;7.10;2.45;;;6.00;99.90;;;;;;5004595;28;20088;-58
2022/02/23 01:20:05;;;;;;;8.90;2.15;;;6.00;99.90;;;;;;5016145;28;20561;-59
2022/02/23 01:22:31;;;;;;;10.18;2.55;;;6.00;99.90;;;;;;5005868;28;20081;-59
2022/02/23 01:24:59;;;;;;;7.95;3.03;;;6.00;99.90;;;;;;5021111;28;20167;-58
2022/02/23 01:27:26;;;;;;;11.98;2.60;;;5.90;99.90;;;;;;5005651;28;20283;-59
2022/02/23 01:29:53;;;;;;;9.43;3.05;;;5.90;99.90;;;;;;5003981;28;20137;-59
2022/02/23 01:32:19;;;;;;;10.20;3.55;;;5.90;99.90;;;;;;5005179;28;20085;-59
2022/02/23 01:34:46;;;;;;;9.90;3.60;;;5.90;99.90;;;;;;5005852;28;20129;-59
2022/02/23 01:37:13;;;;;;;10.60;2.90;;;5.90;99.90;;;;;;5005679;28;20073;-58
2022/02/23 01:39:40;;;;;;;8.18;2.45;;;5.90;99.90;;;;;;5005371;28;20148;-59
2022/02/23 01:42:08;;;;;;;10.60;2.50;;;5.90;99.90;;;;;;5005912;28;20061;-59
2022/02/23 01:44:34;;;;;;;6.93;1.92;;;5.80;99.90;;;;;;5006579;28;20085;-59
2022/02/23 01:47:01;;;;;;;6.47;2.50;;;5.80;99.90;;;;;;5005887;28;20332;-58
2022/02/23 01:49:28;;;;;;;9.35;2.60;;;5.80;99.90;;;;;;5003977;28;21155;-59
2022/02/23 01:51:55;;;;;;;5.80;2.20;;;5.80;99.90;;;;;;5005891;28;20089;-59
2022/02/23 01:54:22;;;;;;;8.43;2.22;;;5.70;99.90;;;;;;5004709;28;20547;-59
2022/02/23 01:56:48;;;;;;;8.13;2.45;;;5.70;99.90;;;;;;5005025;28;20125;-58
2022/02/23 01:59:15;;;;;;;8.52;2.33;;;5.70;99.90;;;;;;5002601;28;20089;-59
2022/02/23 02:01:42;;;;;;;6.38;1.83;;;5.70;99.90;;;;;;5010663;28;20084;-59
2022/02/23 02:04:09;;;;;;;5.10;1.95;;;5.70;99.90;;;;;;5009628;28;20048;-59
2022/02/23 02:06:36;;;;;;;5.47;2.00;;;5.70;99.90;;;;;;5004987;28;20054;-61
2022/02/23 02:09:03;;;;;;;5.50;1.98;;;5.70;99.90;;;;;;5005972;28;20453;-58
2022/02/23 02:11:29;;;;;;;10.40;2.55;;;5.60;99.90;;;;;;5003392;28;20446;-56
2022/02/23 02:13:56;;;;;;;8.60;2.05;;;5.60;99.90;;;;;;5003541;28;20191;-58
2022/02/23 02:16:23;;;;;;;6.47;2.42;;;5.60;99.90;;;;;;5018505;28;20121;-59
2022/02/23 02:18:50;;;;;;;5.35;1.90;;;5.50;99.90;;;;;;5003067;28;20140;-59
2022/02/23 02:21:16;;;;;;;6.07;1.88;;;5.50;99.90;;;;;;5004006;28;20124;-59
2022/02/23 02:23:43;;;;;;;8.07;2.15;;;5.50;99.90;;;;;;5000038;28;20053;-59
2022/02/23 02:26:10;;;;;;;6.55;2.20;;;5.50;99.90;;;;;;5000989;28;20433;-59
2022/02/23 02:28:36;;;;;;;5.20;1.80;;;5.50;99.90;;;;;;5000965;28;20129;-59
2022/02/23 02:31:03;;;;;;;6.95;2.00;;;5.50;99.90;;;;;;5002422;28;20156;-59
2022/02/23 02:33:30;;;;;;;6.95;2.03;;;5.40;99.90;;;;;;5009792;28;20101;-59
2022/02/23 02:35:57;;;;;;;5.88;1.70;;;5.40;99.90;;;;;;5025086;28;20600;-59
2022/02/23 02:38:24;;;;;;;10.20;2.00;;;5.40;99.90;;;;;;5006675;28;20133;-59
2022/02/23 02:40:50;;;;;;;3.03;1.40;;;5.40;99.90;;;;;;5005929;28;20054;-59
2022/02/23 02:43:18;;;;;;;4.10;1.50;;;5.40;99.90;;;;;;5006709;28;20506;-59
2022/02/23 02:45:44;;;;;;;4.28;1.27;;;5.30;99.90;;;;;;5004168;28;20054;-59
2022/02/23 02:48:11;;;;;;;4.65;1.70;;;5.30;99.90;;;;;;5004954;28;20069;-59
2022/02/23 02:50:38;;;;;;;2.97;1.30;;;5.20;99.90;;;;;;5003764;28;20148;-60
2022/02/23 02:53:05;;;;;;;5.85;1.60;;;5.20;99.90;;;;;;5000734;28;20109;-59
2022/02/23 02:55:31;;;;;;;3.70;1.30;;;5.20;99.90;;;;;;5004968;28;20496;-59
2022/02/23 02:57:58;;;;;;;3.67;1.17;;;5.20;99.90;;;;;;5003616;28;20081;-59
2022/02/23 03:00:25;;;;;;;4.00;1.60;;;5.10;99.90;;;;;;5003702;28;20129;-59
2022/02/23 03:02:52;;;;;;;4.70;1.38;;;5.10;99.90;;;;;;5005112;28;20092;-60
2022/02/23 03:05:18;;;;;;;4.53;2.58;;;5.10;99.90;;;;;;5004869;28;20050;-59
2022/02/23 03:07:45;;;;;;;2.67;1.30;;;5.10;99.90;;;;;;5005003;28;20139;-59
2022/02/23 03:10:12;;;;;;;4.38;1.15;;;5.10;99.90;;;;;;5005227;28;20065;-60
2022/02/23 03:12:38;;;;;;;6.00;1.60;;;5.10;99.90;;;;;;5004733;28;20140;-60
2022/02/23 03:15:05;;;;;;;5.40;1.27;;;5.10;99.90;;;;;;5003454;28;20573;-60
2022/02/23 03:17:32;;;;;;;5.43;1.20;;;5.00;99.90;;;;;;5007997;28;20077;-60
2022/02/23 03:19:59;;;;;;;5.03;1.00;;;5.10;99.90;;;;;;5009323;28;20527;-60
2022/02/23 03:22:26;;;;;;;5.13;1.30;;;5.00;99.90;;;;;;5008858;28;20458;-58
2022/02/23 03:24:52;;;;;;;2.55;1.05;;;5.00;99.90;;;;;;5008574;28;20612;-59
2022/02/23 03:27:19;;;;;;;4.78;1.33;;;4.90;99.90;;;;;;5008817;28;20046;-60
2022/02/23 03:29:46;;;;;;;3.53;1.30;;;4.90;99.90;;;;;;5003052;28;20768;-59
2022/02/23 03:32:13;;;;;;;5.22;1.52;;;4.90;99.90;;;;;;5008905;28;20098;-60
2022/02/23 03:34:40;;;;;;;5.03;1.48;;;4.90;99.90;;;;;;5008945;28;20663;-59
2022/02/23 03:37:07;;;;;;;6.10;1.67;;;4.90;99.90;;;;;;5008860;28;20149;-60
2022/02/23 03:39:33;;;;;;;4.15;1.40;;;4.80;99.90;;;;;;5007806;28;20116;-60
2022/02/23 03:42:01;;;;;;;5.88;1.58;;;4.80;99.90;;;;;;5008692;28;20397;-59
2022/02/23 03:44:27;;;;;;;7.72;2.03;;;4.70;99.90;;;;;;5007163;28;20133;-60
2022/02/23 03:46:54;;;;;;;4.47;1.40;;;4.70;99.90;;;;;;5008306;28;20050;-60
2022/02/23 03:49:21;;;;;;;3.75;1.17;;;4.70;99.90;;;;;;5007908;28;20046;-59
2022/02/23 03:51:48;;;;;;;3.28;1.23;;;4.70;99.90;;;;;;5008922;28;20458;-59
2022/02/23 03:54:15;;;;;;;3.15;1.13;;;4.70;99.90;;;;;;5008147;28;20157;-60
2022/02/23 03:56:46;;;;;;;4.18;1.27;;;4.70;99.90;;;;;;5007607;28;20088;-60
2022/02/23 03:59:13;;;;;;;2.75;1.10;;;4.70;99.90;;;;;;5003069;28;20548;-60
2022/02/23 04:01:46;;;;;;;6.82;1.63;;;4.70;99.90;;;;;;5008416;28;20137;-60
2022/02/23 04:04:13;;;;;;;3.72;1.10;;;4.70;99.90;;;;;;5007610;28;20237;-60
2022/02/23 04:06:42;;;;;;;2.92;1.10;;;4.70;99.90;;;;;;5008086;28;20050;-60
2022/02/23 04:09:09;;;;;;;5.07;1.17;;;4.60;99.90;;;;;;5007200;28;20084;-59
2022/02/23 04:11:35;;;;;;;4.57;1.25;;;4.70;99.90;;;;;;5008118;28;20054;-60
2022/02/23 04:14:06;;;;;;;3.60;1.40;;;4.70;99.90;;;;;;5006335;28;20189;-60
2022/02/23 04:16:33;;;;;;;5.05;1.20;;;4.70;99.90;;;;;;5008808;28;20038;-60
2022/02/23 04:19:00;;;;;;;4.22;1.23;;;4.70;99.90;;;;;;5026365;28;20080;-60
2022/02/23 04:21:27;;;;;;;3.97;1.20;;;4.60;99.90;;;;;;5026613;28;20129;-58
2022/02/23 04:23:54;;;;;;;4.75;1.15;;;4.60;99.90;;;;;;5024334;28;20077;-59
2022/02/23 04:26:21;;;;;;;3.50;1.10;;;4.60;99.90;;;;;;5025653;28;20497;-60
2022/02/23 04:28:48;;;;;;;4.57;1.23;;;4.50;99.90;;;;;;5005609;28;20049;-60
2022/02/23 04:31:20;;;;;;;3.92;1.30;;;4.50;99.90;;;;;;5007779;28;20042;-60
2022/02/23 04:33:49;;;;;;;3.40;1.20;;;4.50;99.90;;;;;;5007065;28;20169;-60
2022/02/23 04:36:16;;;;;;;1.38;0.75;;;4.50;99.90;;;;;;5007680;28;20149;-60
2022/02/23 04:38:42;;;;;;;3.33;1.02;;;4.50;99.90;;;;;;5006745;28;20104;-59
2022/02/23 04:41:09;;;;;;;3.45;1.08;;;4.40;99.90;;;;;;5007016;28;20120;-59
2022/02/23 04:43:36;;;;;;;4.53;1.13;;;4.40;99.90;;;;;;5005384;28;20137;-59
2022/02/23 04:46:04;;;;;;;4.32;0.80;;;4.40;99.90;;;;;;5006970;28;20049;-60
2022/02/23 04:48:35;;;;;;;4.75;1.25;;;4.30;99.90;;;;;;5006995;28;20104;-59
2022/02/23 04:51:02;;;;;;;4.47;1.50;;;4.30;99.90;;;;;;5006971;28;20108;-60
2022/02/23 04:53:29;;;;;;;6.07;1.30;;;4.30;99.90;;;;;;5001250;28;20137;-59
2022/02/23 04:55:56;;;;;;;4.43;1.30;;;4.30;99.90;;;;;;5006743;28;20145;-59
2022/02/23 04:58:23;;;;;;;2.13;0.98;;;4.20;99.90;;;;;;5005848;28;20559;-60
2022/02/23 05:00:50;;;;;;;4.10;1.10;;;4.20;99.90;;;;;;5005999;28;20128;-59
2022/02/23 05:03:16;;;;;;;2.88;1.20;;;4.20;99.90;;;;;;5025730;28;20055;-59
2022/02/23 05:05:45;;;;;;;3.05;1.30;;;4.20;99.90;;;;;;5006889;28;20125;-60
2022/02/23 05:08:13;;;;;;;3.25;0.98;;;4.10;99.90;;;;;;5007435;28;20050;-60
2022/02/23 05:10:40;;;;;;;2.95;1.00;;;4.10;99.90;;;;;;5006996;28;20566;-59
2022/02/23 05:13:07;;;;;;;2.60;1.00;;;4.00;99.90;;;;;;5006197;28;20091;-59
2022/02/23 05:15:34;;;;;;;3.30;0.90;;;4.00;99.90;;;;;;5004554;28;20042;-59
2022/02/23 05:18:01;;;;;;;3.17;1.10;;;4.00;99.90;;;;;;5013613;28;20575;-59
2022/02/23 05:20:28;;;;;;;3.13;0.98;;;3.90;99.90;;;;;;5005240;28;20050;-60
2022/02/23 05:22:54;;;;;;;4.57;1.08;;;3.90;99.90;;;;;;5004205;28;20088;-60
2022/02/23 05:25:21;;;;;;;2.65;1.00;;;3.80;99.90;;;;;;5004168;28;20220;-60
2022/02/23 05:27:48;;;;;;;4.22;1.08;;;3.80;99.90;;;;;;5005617;28;20136;-60
2022/02/23 05:30:15;;;;;;;2.45;0.90;;;3.80;99.90;;;;;;5004605;28;20120;-60
2022/02/23 05:32:42;;;;;;;3.30;1.20;;;3.80;99.90;;;;;;5005931;28;20136;-60
2022/02/23 05:35:09;;;;;;;2.58;1.38;;;3.70;99.90;;;;;;5005810;28;20088;-60
2022/02/23 05:37:37;;;;;;;2.97;0.90;;;3.80;99.90;;;;;;5004584;28;20389;-59
2022/02/23 05:40:04;;;;;;;2.88;0.80;;;3.80;99.90;;;;;;5005210;28;20111;-59
2022/02/23 05:42:31;;;;;;;4.85;1.25;;;3.80;99.90;;;;;;5003848;28;20143;-60
2022/02/23 05:44:58;;;;;;;3.17;0.95;;;3.70;99.90;;;;;;5004715;28;20050;-61
2022/02/23 05:47:25;;;;;;;3.33;1.30;;;3.70;99.90;;;;;;5005599;28;20161;-59
2022/02/23 05:49:51;;;;;;;5.13;1.30;;;3.70;99.90;;;;;;5001610;28;20528;-59
2022/02/23 05:52:20;;;;;;;2.72;0.95;;;3.70;99.90;;;;;;5003725;28;20061;-59
2022/02/23 05:54:48;;;;;;;3.58;1.25;;;3.70;99.90;;;;;;5003343;28;20085;-59
2022/02/23 05:57:15;;;;;;;5.07;1.30;;;3.60;99.90;;;;;;5003818;28;20096;-59
2022/02/23 05:59:46;;;;;;;5.00;1.23;;;3.60;99.90;;;;;;5000028;28;20057;-59
2022/02/23 06:02:13;;;;;;;2.80;1.05;;;3.60;99.90;;;;;;5002753;28;20133;-59
2022/02/23 06:04:40;;;;;;;4.55;1.50;;;3.60;99.90;;;;;;5000858;28;20101;-59
2022/02/23 06:07:06;;;;;;;2.97;1.13;;;3.60;99.90;;;;;;5002684;28;20676;-59
2022/02/23 06:09:33;;;;;;;1.70;0.90;;;3.60;99.90;;;;;;5001428;28;20161;-58
2022/02/23 06:12:01;;;;;;;4.28;1.45;;;3.50;99.90;;;;;;5002483;28;20081;-58
2022/02/23 06:14:28;;;;;;;5.18;1.25;;;3.60;99.90;;;;;;5001555;28;20504;-59
2022/02/23 06:16:54;;;;;;;3.42;1.15;;;3.50;99.90;;;;;;5001822;28;20131;-60
2022/02/23 06:19:21;;;;;;;5.63;1.23;;;3.50;99.90;;;;;;5000488;28;20141;-60
2022/02/23 06:21:48;;;;;;;3.38;1.20;;;3.40;99.90;;;;;;5001844;28;20066;-60
2022/02/23 06:24:15;;;;;;;2.95;1.17;;;3.40;99.90;;;;;;4996917;28;20065;-58
2022/02/23 06:26:42;;;;;;;2.88;0.90;;;3.40;99.90;;;;;;4993755;28;20136;-59
2022/02/23 06:29:09;;;;;;;2.88;1.83;;;3.40;99.90;;;;;;5003754;28;20149;-59
2022/02/23 06:31:36;;;;;;;2.65;0.82;;;3.30;99.90;;;;;;4999043;28;20081;-59
2022/02/23 06:34:02;;;;;;;4.25;1.67;;;3.40;99.90;;;;;;4998032;28;20152;-59
2022/02/23 06:36:29;;;;;;;3.65;1.60;;;3.30;99.90;;;;;;4995165;28;20053;-60
2022/02/23 06:38:56;;;;;;;4.40;1.45;;;3.30;99.90;;;;;;4997981;28;20630;-58
2022/02/23 06:41:26;;;;;;;3.03;1.33;;;3.30;99.90;;;;;;4990263;28;20581;-60
2022/02/23 06:43:53;;;;;;;4.10;1.20;;;3.20;99.90;;;;;;4995987;28;20045;-59
2022/02/23 06:46:20;;;;;;;3.63;1.27;;;3.20;99.90;;;;;;5001840;28;20507;-60
2022/02/23 06:48:47;;;;;;;3.38;1.70;;;3.20;99.90;;;;;;4998796;28;20053;-60
2022/02/23 06:51:18;;;;;;;2.40;1.35;;;3.20;99.90;;;;;;4988809;28;20380;-59
2022/02/23 06:53:46;;;;;;;2.55;1.33;;;3.20;99.90;;;;;;4996423;28;20397;-59
2022/02/23 06:56:13;;;;;;;3.83;1.42;;;3.20;99.90;;;;;;4999099;28;20149;-59
2022/02/23 06:58:49;;;;;;;7.32;2.03;;;3.20;99.90;;;;;;4999556;28;20133;-59
2022/02/23 07:01:18;;;;;;;4.65;1.70;;;3.30;99.90;;;;;;4996432;28;20057;-60
2022/02/23 07:03:45;;;;;;;6.18;2.03;;;3.30;99.90;;;;;;5002723;28;20148;-59
2022/02/23 07:06:13;;;;;;;4.82;1.67;;;3.40;99.90;;;;;;5007124;28;20089;-60
2022/02/23 07:08:43;;;;;;;3.70;1.45;;;3.40;99.90;;;;;;4993230;28;20085;-59
2022/02/23 07:11:10;;;;;;;5.32;1.70;;;3.50;99.90;;;;;;4994766;28;20144;-59
2022/02/23 07:13:37;;;;;;;5.18;1.77;;;3.50;99.90;;;;;;4992834;28;20077;-59
2022/02/23 07:16:04;;;;;;;4.13;1.52;;;3.60;99.90;;;;;;4995324;28;20160;-59
2022/02/23 07:18:33;;;;;;;7.43;1.73;;;3.70;99.90;;;;;;4996503;28;20096;-59
2022/02/23 07:21:00;;;;;;;4.63;1.48;;;3.80;99.90;;;;;;4996662;28;20141;-59
2022/02/23 07:23:27;;;;;;;5.57;2.22;;;3.90;99.90;;;;;;4991655;28;20127;-58
2022/02/23 07:25:56;;;;;;;6.78;1.95;;;4.10;99.90;;;;;;4996706;28;20058;-59
2022/02/23 07:28:24;;;;;;;5.00;1.77;;;4.20;99.90;;;;;;4996294;28;20153;-60
2022/02/23 07:31:07;;;;;;;5.32;2.30;;;4.20;99.90;;;;;;4997853;28;20064;-60
2022/02/23 07:33:37;;;;;;;6.25;2.10;;;4.30;99.90;;;;;;4997892;28;20050;-59
2022/02/23 07:36:04;;;;;;;6.45;1.95;;;4.40;99.90;;;;;;4999028;28;20085;-60
2022/02/23 07:38:32;;;;;;;5.18;2.20;;;4.50;99.90;;;;;;4997552;28;20128;-60
2022/02/23 07:40:59;;;;;;;5.93;2.35;;;4.50;99.90;;;;;;4997674;28;20493;-60
2022/02/23 07:43:45;;;;;;;3.95;1.48;;;4.50;99.90;;;;;;4996210;28;20476;-59
2022/02/23 07:46:12;;;;;;;5.47;1.98;;;4.60;99.90;;;;;;4997747;28;20050;-59
2022/02/23 07:48:41;;;;;;;5.82;2.15;;;4.60;99.90;;;;;;4997720;28;20145;-59
2022/02/23 07:51:08;;;;;;;6.35;2.60;;;4.50;99.90;;;;;;4998152;28;20157;-60
2022/02/23 07:53:34;;;;;;;6.50;2.45;;;4.60;99.90;;;;;;4996883;28;20081;-60
2022/02/23 07:56:01;;;;;;;6.20;2.63;;;4.60;99.90;;;;;;4997630;28;20136;-60
2022/02/23 07:58:28;;;;;;;6.60;2.40;;;4.70;99.90;;;;;;4994366;28;20141;-59
2022/02/23 08:00:56;;;;;;;7.90;2.63;;;4.70;99.90;;;;;;4991655;28;20101;-59
2022/02/23 08:03:27;;;;;;;7.43;2.47;;;4.70;99.90;;;;;;4997418;28;20065;-60
2022/02/23 08:05:54;;;;;;;5.60;2.10;;;4.80;99.90;;;;;;4992621;28;20120;-59
2022/02/23 08:08:22;;;;;;;6.70;2.05;;;4.90;99.90;;;;;;4992991;28;20217;-60
2022/02/23 08:10:50;;;;;;;5.75;2.30;;;4.90;99.90;;;;;;4990923;28;20141;-59
2022/02/23 08:13:17;;;;;;;5.85;1.73;;;5.00;99.90;;;;;;4992439;28;20045;-60
2022/02/23 08:21:15;;;;;;;5.32;1.40;;;5.20;99.90;;;;;;4996143;28;20604;-61
2022/02/23 08:23:45;;;;;;;4.75;1.60;;;5.20;99.90;;;;;;4989411;28;20081;-59
2022/02/23 08:26:12;;;;;;;7.43;2.13;;;5.30;99.90;;;;;;4999987;28;20077;-60
2022/02/23 08:28:39;;;;;;;3.60;1.50;;;5.40;99.90;;;;;;4997560;28;20136;-57
2022/02/23 08:31:07;;;;;;;3.80;1.38;;;5.50;99.90;;;;;;4999373;28;20164;-62
2022/02/23 08:33:33;;;;;;;3.47;1.50;;;5.50;99.90;;;;;;5000237;28;20552;-59
2022/02/23 08:36:00;;;;;;;5.72;1.70;;;5.60;99.90;;;;;;5000897;28;20092;-59
2022/02/23 08:38:27;;;;;;;4.55;1.73;;;5.70;99.90;;;;;;4999341;28;20530;-59
2022/02/23 08:40:53;;;;;;;4.22;1.42;;;5.70;99.90;;;;;;4998717;28;20072;-59
2022/02/23 08:43:20;;;;;;;6.32;2.10;;;5.80;99.90;;;;;;4999655;28;20075;-59
2022/02/23 08:45:47;;;;;;;8.73;2.53;;;5.90;99.90;;;;;;4997640;28;20140;-58
2022/02/23 08:48:14;;;;;;;13.50;4.85;;;6.00;99.90;;;;;;4999514;28;20297;-59
2022/02/23 08:50:41;;;;;;;9.25;2.58;;;6.10;99.90;;;;;;4998857;28;20132;-59
2022/02/23 08:53:07;;;;;;;9.48;2.75;;;6.20;99.90;;;;;;4998442;28;20093;-60
2022/02/23 08:55:35;;;;;;;10.23;2.70;;;6.30;99.90;;;;;;4992699;28;20084;-59
2022/02/23 08:58:01;;;;;;;8.13;2.72;;;6.40;99.90;;;;;;4992726;28;20471;-59
2022/02/23 09:00:29;;;;;;;12.73;2.72;;;6.40;99.90;;;;;;5003627;28;20065;-59
2022/02/23 09:02:56;;;;;;;8.68;3.45;;;6.50;99.90;;;;;;5017791;28;20051;-60
2022/02/23 09:05:23;;;;;;;10.27;3.13;;;6.50;99.90;;;;;;5013070;28;20053;-59
2022/02/23 09:07:49;;;;;;;12.98;3.40;;;6.50;99.90;;;;;;5008743;28;20101;-60
2022/02/23 09:10:16;;;;;;;10.02;3.63;;;6.60;99.90;;;;;;5004646;28;20500;-60
2022/02/23 09:12:43;;;;;;;12.38;4.25;;;6.60;99.90;;;;;;5020017;28;20112;-60
2022/02/23 09:15:12;;;;;;;12.27;4.32;;;6.60;99.90;;;;;;4996779;28;20479;-60
2022/02/23 09:17:40;;;;;;;11.38;3.92;;;6.60;99.90;;;;;;4998616;28;20045;-59
2022/02/23 09:20:07;;;;;;;11.63;4.45;;;6.60;99.90;;;;;;4999608;28;20145;-59
2022/02/23 09:22:34;;;;;;;15.55;3.92;;;6.70;99.90;;;;;;4999731;28;20076;-59
2022/02/23 09:25:04;;;;;;;10.95;3.30;;;6.70;99.90;;;;;;4999178;28;20056;-59
2022/02/23 09:27:31;;;;;;;8.10;3.00;;;6.70;99.90;;;;;;4999402;28;20545;-60
2022/02/23 09:29:58;;;;;;;10.88;3.80;;;6.80;99.90;;;;;;4996739;28;20193;-60
2022/02/23 09:32:25;;;;;;;10.80;3.10;;;6.80;99.90;;;;;;5000503;28;20211;-59
2022/02/23 09:34:52;;;;;;;11.27;3.35;;;6.90;99.90;;;;;;4994797;28;20447;-60
2022/02/23 09:37:19;;;;;;;11.95;3.30;;;6.90;99.90;;;;;;5013075;28;20050;-59
2022/02/23 09:39:46;;;;;;;14.55;4.25;;;7.00;99.90;;;;;;4997485;28;20115;-59
2022/02/23 09:42:12;;;;;;;13.15;3.55;;;7.00;99.90;;;;;;5004434;28;20050;-58
2022/02/23 09:44:42;;;;;;;11.20;3.10;;;7.00;99.90;;;;;;5003890;28;20141;-59
2022/02/23 09:47:25;;;;;;;11.70;3.28;;;7.10;99.90;;;;;;4991943;28;20085;-59
2022/02/23 09:49:52;;;;;;;12.20;3.78;;;7.10;99.90;;;;;;5004746;28;20168;-59
2022/02/23 09:52:24;;;;;;;14.90;4.25;;;7.20;99.90;;;;;;5005979;28;20303;-58
2022/02/23 09:54:55;;;;;;;13.00;3.40;;;7.30;99.90;;;;;;5002460;28;20572;-59
2022/02/23 09:57:22;;;;;;;8.20;2.40;;;7.40;99.90;;;;;;4999352;28;20132;-59
2022/02/23 09:59:49;;;;;;;10.82;3.28;;;7.50;99.90;;;;;;4983907;28;20129;-59
2022/02/23 10:02:15;;;;;;;12.85;3.28;;;7.60;99.90;;;;;;4981294;28;20073;-59
2022/02/23 10:04:43;;;;;;;11.05;2.95;;;7.60;99.90;;;;;;4999673;28;20572;-60
2022/02/23 10:07:13;;;;;;;9.02;3.25;;;7.60;99.90;;;;;;4996543;28;20042;-58
2022/02/23 10:09:41;;;;;;;6.47;2.47;;;7.70;99.90;;;;;;4994883;28;20082;-60
2022/02/23 10:12:15;;;;;;;6.43;2.40;;;7.80;99.90;;;;;;5002000;28;20129;-60
2022/02/23 10:14:42;;;;;;;12.32;3.03;;;7.90;99.90;;;;;;4999866;28;20185;-59
2022/02/23 10:17:08;;;;;;;12.90;3.85;;;7.90;99.90;;;;;;5013739;28;20524;-58
2022/02/23 10:19:36;;;;;;;14.52;4.82;;;7.90;99.90;;;;;;4997238;28;20131;-59
2022/02/23 10:22:03;;;;;;;11.82;3.78;;;7.90;99.90;;;;;;4998281;28;20145;-59
2022/02/23 10:24:34;;;;;;;11.77;3.33;;;8.00;99.90;;;;;;4992604;28;20486;-59
2022/02/23 10:27:07;;;;;;;11.25;2.78;;;8.00;99.90;;;;;;5010058;28;20077;-59
2022/02/23 10:29:46;;;;;;;13.20;3.72;;;8.10;99.90;;;;;;4994335;28;20050;-60
2022/02/23 10:32:14;;;;;;;14.30;3.10;;;8.20;99.90;;;;;;4985081;28;20047;-59
2022/02/23 10:34:46;;;;;;;11.63;4.90;;;8.30;99.90;;;;;;4992627;28;20140;-60
2022/02/23 10:37:22;;;;;;;10.55;3.88;;;8.30;99.90;;;;;;4989753;28;20401;-59
2022/02/23 10:40:00;;;;;;;8.90;3.03;;;8.40;99.90;;;;;;5008298;28;20085;-60
2022/02/23 10:42:32;;;;;;;11.27;4.00;;;8.50;99.90;;;;;;5021231;28;20049;-59
2022/02/23 10:44:59;;;;;;;11.48;3.47;;;8.60;99.90;;;;;;5008175;28;20132;-59
2022/02/23 10:47:32;;;;;;;15.00;4.40;;;8.70;99.90;;;;;;5015326;28;20126;-59
2022/02/23 10:50:17;;;;;;;12.00;3.63;;;8.80;99.90;;;;;;5006205;28;20050;-59
2022/02/23 10:52:57;;;;;;;7.65;3.60;;;8.90;99.90;;;;;;5000841;28;20073;-58
2022/02/23 10:55:29;;;;;;;9.30;2.85;;;9.00;99.90;;;;;;5010131;28;20426;-59
2022/02/23 10:57:57;;;;;;;9.52;3.22;;;9.10;99.90;;;;;;5013992;28;20070;-59
2022/02/23 11:00:39;;;;;;;9.15;3.80;;;9.20;99.90;;;;;;5000878;28;20054;-60
2022/02/23 11:03:06;;;;;;;10.23;3.63;;;9.30;99.90;;;;;;5003950;28;20081;-59
2022/02/23 11:05:33;;;;;;;7.25;3.00;;;9.40;99.90;;;;;;5002883;28;20041;-59
2022/02/23 11:08:03;;;;;;;7.55;2.35;;;9.50;99.90;;;;;;4991767;28;20054;-59
2022/02/23 11:10:30;;;;;;;6.20;1.88;;;9.60;99.90;;;;;;4991379;28;20050;-59
2022/02/23 11:12:58;;;;;;;5.13;2.00;;;9.80;99.90;;;;;;4987397;28;20054;-60
2022/02/23 11:15:26;;;;;;;10.52;2.47;;;9.90;99.90;;;;;;4986351;28;20138;-60
2022/02/23 11:17:55;;;;;;;7.93;2.13;;;10.00;99.90;;;;;;4989296;28;20531;-60
2022/02/23 11:20:29;;;;;;;13.82;3.28;;;10.00;99.90;;;;;;4986707;28;20385;-59
2022/02/23 11:23:01;;;;;;;8.95;2.40;;;10.00;99.90;;;;;;4987159;28;20320;-59
2022/02/23 11:25:39;;;;;;;5.68;2.30;;;10.10;99.90;;;;;;4989106;28;20182;-59
2022/02/23 11:28:24;;;;;;;9.55;2.38;;;10.10;99.90;;;;;;4987645;28;20070;-59
2022/02/23 11:30:56;;;;;;;6.97;2.10;;;10.00;99.90;;;;;;4987530;28;20081;-58
2022/02/23 11:33:54;;;;;;;6.03;2.58;;;10.00;99.90;;;;;;4992661;28;20061;-59
2022/02/23 11:36:34;;;;;;;6.03;2.28;;;10.00;99.90;;;;;;4989072;28;20129;-59
2022/02/23 11:39:04;;;;;;;8.00;2.42;;;10.10;99.90;;;;;;5005311;28;20058;-61
2022/02/23 11:41:32;;;;;;;6.97;2.35;;;10.10;99.90;;;;;;4999869;28;20085;-59
2022/02/23 11:44:08;;;;;;;8.30;2.75;;;10.20;99.90;;;;;;5002257;28;20085;-58
2022/02/23 11:46:50;;;;;;;6.57;2.42;;;10.40;99.90;;;;;;4986138;28;20552;-59
2022/02/23 11:49:20;;;;;;;7.07;2.25;;;10.40;99.90;;;;;;4988900;28;20129;-61
2022/02/23 11:51:47;;;;;;;5.75;2.30;;;10.40;99.90;;;;;;4996254;28;20042;-61
2022/02/23 11:54:14;;;;;;;8.90;3.45;;;10.50;99.90;;;;;;4999994;28;20084;-59
2022/02/23 11:56:46;;;;;;;9.77;2.95;;;10.60;99.90;;;;;;5021086;28;20072;-59
2022/02/23 11:59:50;;;;;;;7.00;1.98;;;10.80;99.90;;;;;;4997088;28;20057;-59
2022/02/23 12:02:17;;;;;;;7.93;2.53;;;10.90;99.90;;;;;;5021242;28;20455;-58
2022/02/23 12:04:50;;;;;;;7.80;2.30;;;10.90;99.90;;;;;;5008717;28;20085;-62
2022/02/23 12:07:17;;;;;;;7.13;1.98;;;10.90;99.90;;;;;;4995688;28;20394;-61
2022/02/23 12:09:48;;;;;;;8.13;2.13;;;10.80;99.90;;;;;;4997130;28;20050;-59
2022/02/23 12:12:48;;;;;;;6.82;2.13;;;10.80;99.90;;;;;;4998855;28;20141;-59
2022/02/23 12:15:33;;;;;;;6.15;2.13;;;10.80;99.90;;;;;;4977188;28;20129;-59
2022/02/23 12:18:20;;;;;;;8.38;2.55;;;10.90;99.90;;;;;;4998719;28;20077;-59
2022/02/23 12:20:48;;;;;;;9.07;2.72;;;10.90;99.90;;;;;;4992562;28;20130;-58
2022/02/23 12:23:17;;;;;;;8.60;2.15;;;11.00;99.90;;;;;;4994313;28;20186;-59
2022/02/23 12:25:46;;;;;;;6.80;2.45;;;11.10;99.90;;;;;;4992659;28;20136;-61
2022/02/23 12:28:14;;;;;;;8.15;2.60;;;10.90;99.90;;;;;;4988448;28;20069;-61
2022/02/23 12:30:41;;;;;;;8.98;2.83;;;10.80;99.90;;;;;;4988653;28;20844;-59
2022/02/23 12:33:14;;;;;;;6.80;1.92;;;10.90;99.90;;;;;;4987873;28;20474;-59
2022/02/23 12:35:41;;;;;;;;;;;11.00;99.90;;;;;;4995180;28;20480;-59
2022/02/23 12:38:07;;;;;;;6.38;2.13;;;11.00;99.90;;;;;;4996684;28;20015;-58
2022/02/23 12:40:34;;;;;;;6.63;2.08;;;10.90;99.90;;;;;;4987311;28;20054;-59
2022/02/23 12:43:08;;;;;;;9.98;2.90;;;10.80;99.90;;;;;;4983885;28;20479;-57
2022/02/23 12:45:51;;;;;;;11.48;2.60;;;10.80;99.90;;;;;;4990366;28;20082;-59
2022/02/23 12:48:30;;;;;;;8.32;2.30;;;10.70;99.90;;;;;;4997050;28;20378;-61
2022/02/23 12:51:05;;;;;;;5.75;2.83;;;10.80;99.90;;;;;;4982816;28;20065;-60
2022/02/23 12:53:37;;;;;;;6.70;2.10;;;10.90;99.90;;;;;;4986591;28;20085;-61
2022/02/23 12:56:40;;;;;;;6.00;1.88;;;10.90;99.90;;;;;;4988610;28;20582;-60
2022/02/23 12:59:08;;;;;;;6.05;2.28;;;11.30;99.90;;;;;;4995519;28;20078;-61
2022/02/23 13:01:50;;;;;;;7.68;2.13;;;12.10;99.90;;;;;;4993600;28;20081;-61
2022/02/23 13:04:20;;;;;;;6.05;2.58;;;12.40;99.90;;;;;;4999819;28;20131;-61
2022/02/23 13:06:49;;;;;;;6.25;2.85;;;12.30;99.90;;;;;;4998338;28;20596;-61